createdAt,value
2022-11-09T00:01:05.117Z,100.00
2022-11-09T00:03:33.154Z,100.00
2022-11-09T00:06:01.857Z,100.00
2022-11-09T00:08:31.058Z,100.00
2022-11-09T00:11:03.957Z,100.00
2022-11-09T00:13:31.887Z,100.00
2022-11-09T00:16:00.231Z,100.00
2022-11-09T00:18:28.013Z,100.00
2022-11-09T00:20:56.978Z,100.00
2022-11-09T00:23:24.785Z,100.00
2022-11-09T00:25:53.944Z,100.00
2022-11-09T00:28:21.687Z,100.00
2022-11-09T00:30:49.450Z,100.00
2022-11-09T00:33:17.670Z,100.00
2022-11-09T00:35:45.687Z,100.00
2022-11-09T00:38:13.510Z,100.00
2022-11-09T00:40:41.296Z,100.00
2022-11-09T00:43:10.709Z,100.00
2022-11-09T00:45:38.538Z,100.00
2022-11-09T00:48:06.499Z,100.00
2022-11-09T00:50:34.855Z,100.00
2022-11-09T00:53:02.687Z,100.00
2022-11-09T00:55:30.487Z,100.00
2022-11-09T00:57:58.281Z,100.00
2022-11-09T01:00:27.495Z,100.00
2022-11-09T01:02:55.279Z,100.00
2022-11-09T01:05:25.022Z,100.00
2022-11-09T01:07:52.761Z,100.00
2022-11-09T01:10:20.483Z,100.00
2022-11-09T01:12:48.241Z,100.00
2022-11-09T01:15:16.334Z,100.00
2022-11-09T01:17:45.530Z,100.00
2022-11-09T01:20:13.771Z,100.00
2022-11-09T01:22:41.478Z,100.00
2022-11-09T01:25:09.883Z,100.00
2022-11-09T01:27:37.648Z,100.00
2022-11-09T01:30:07.983Z,100.00
2022-11-09T01:32:35.902Z,100.00
2022-11-09T01:35:08.545Z,100.00
2022-11-09T01:37:36.296Z,100.00
2022-11-09T01:40:04.347Z,100.00
2022-11-09T01:42:37.328Z,100.00
2022-11-09T01:45:26.682Z,100.00
2022-11-09T01:48:03.331Z,100.00
2022-11-09T01:50:45.629Z,100.00
2022-11-09T01:53:19.248Z,100.00
2022-11-09T01:55:51.453Z,100.00
2022-11-09T01:58:24.176Z,100.00
2022-11-09T02:00:52.845Z,100.00
2022-11-09T02:03:23.757Z,100.00
2022-11-09T02:05:53.682Z,100.00
2022-11-09T02:08:24.395Z,100.00
2022-11-09T02:11:00.035Z,100.00
2022-11-09T02:13:30.551Z,100.00
2022-11-09T02:15:58.342Z,100.00
2022-11-09T02:18:26.315Z,100.00
2022-11-09T02:20:58.853Z,100.00
2022-11-09T02:23:27.711Z,100.00
2022-11-09T02:25:59.877Z,100.00
2022-11-09T02:28:29.145Z,100.00
2022-11-09T02:30:58.822Z,100.00
2022-11-09T02:33:27.309Z,100.00
2022-11-09T02:35:58.661Z,100.00
2022-11-09T02:38:26.516Z,100.00
2022-11-09T02:40:54.912Z,100.00
2022-11-09T02:43:23.964Z,100.00
2022-11-09T02:45:51.806Z,100.00
2022-11-09T02:48:19.796Z,100.00
2022-11-09T02:50:48.602Z,100.00
2022-11-09T02:53:18.163Z,100.00
2022-11-09T02:55:46.556Z,100.00
2022-11-09T02:58:15.058Z,100.00
2022-11-09T03:00:46.272Z,100.00
2022-11-09T03:03:14.954Z,100.00
2022-11-09T03:05:44.846Z,100.00
2022-11-09T03:08:14.330Z,100.00
2022-11-09T03:10:46.215Z,100.00
2022-11-09T03:13:21.428Z,100.00
2022-11-09T03:15:49.484Z,100.00
2022-11-09T03:18:17.301Z,100.00
2022-11-09T03:20:45.258Z,100.00
2022-11-09T03:23:16.921Z,100.00
2022-11-09T03:25:46.501Z,100.00
2022-11-09T03:28:14.310Z,100.00
2022-11-09T03:30:42.324Z,100.00
2022-11-09T03:33:12.571Z,100.00
2022-11-09T03:35:41.449Z,100.00
2022-11-09T03:38:09.368Z,100.00
2022-11-09T03:40:37.401Z,100.00
2022-11-09T03:43:06.973Z,100.00
2022-11-09T03:45:35.207Z,100.00
2022-11-09T03:48:02.974Z,100.00
2022-11-09T03:50:33.040Z,100.00
2022-11-09T03:53:01.757Z,100.00
2022-11-09T03:55:30.786Z,100.00
2022-11-09T03:57:58.431Z,100.00
2022-11-09T04:00:27.648Z,100.00
2022-11-09T04:02:57.009Z,100.00
2022-11-09T04:05:24.894Z,100.00
2022-11-09T04:07:54.832Z,100.00
2022-11-09T04:10:23.721Z,100.00
2022-11-09T04:12:51.821Z,100.00
2022-11-09T04:15:19.625Z,100.00
2022-11-09T04:17:57.127Z,100.00
2022-11-09T04:20:25.000Z,100.00
2022-11-09T04:22:56.665Z,100.00
2022-11-09T04:25:25.854Z,100.00
2022-11-09T04:27:57.461Z,100.00
2022-11-09T04:30:27.880Z,100.00
2022-11-09T04:32:57.367Z,100.00
2022-11-09T04:35:26.237Z,100.00
2022-11-09T04:37:55.033Z,100.00
2022-11-09T04:40:23.330Z,100.00
2022-11-09T04:42:51.036Z,100.00
2022-11-09T04:45:19.147Z,100.00
2022-11-09T04:47:46.876Z,100.00
2022-11-09T04:50:16.091Z,100.00
2022-11-09T04:52:43.777Z,100.00
2022-11-09T04:55:11.422Z,100.00
2022-11-09T04:57:39.155Z,100.00
2022-11-09T05:00:07.765Z,100.00
2022-11-09T05:02:35.450Z,100.00
2022-11-09T05:05:03.182Z,100.00
2022-11-09T05:07:32.318Z,100.00
2022-11-09T05:09:59.972Z,100.00
2022-11-09T05:12:27.666Z,100.00
2022-11-09T05:14:57.613Z,100.00
2022-11-09T05:17:25.318Z,100.00
2022-11-09T05:19:55.859Z,100.00
2022-11-09T05:22:41.110Z,100.00
2022-11-09T05:25:11.042Z,100.00
2022-11-09T05:27:39.850Z,100.00
2022-11-09T05:30:09.003Z,100.00
2022-11-09T05:32:39.307Z,100.00
2022-11-09T05:35:08.203Z,100.00
2022-11-09T05:37:35.922Z,100.00
2022-11-09T05:40:03.698Z,100.00
2022-11-09T05:42:32.779Z,100.00
2022-11-09T05:45:21.103Z,100.00
2022-11-09T05:47:48.830Z,100.00
2022-11-09T05:50:17.324Z,100.00
2022-11-09T05:52:50.900Z,100.00
2022-11-09T05:55:18.717Z,100.00
2022-11-09T05:57:47.857Z,100.00
2022-11-09T06:00:16.823Z,100.00
2022-11-09T06:02:44.553Z,100.00
2022-11-09T06:05:12.570Z,100.00
2022-11-09T06:07:40.223Z,100.00
2022-11-09T06:10:09.355Z,100.00
2022-11-09T06:12:37.005Z,100.00
2022-11-09T06:15:06.847Z,100.00
2022-11-09T06:17:34.494Z,100.00
2022-11-09T06:20:02.165Z,100.00
2022-11-09T06:22:29.815Z,100.00
2022-11-09T06:24:57.493Z,100.00
2022-11-09T06:27:25.157Z,100.00
2022-11-09T06:29:52.804Z,100.00
2022-11-09T06:32:21.805Z,100.00
2022-11-09T06:34:50.501Z,100.00
2022-11-09T06:37:18.193Z,100.00
2022-11-09T06:39:47.362Z,100.00
2022-11-09T06:42:15.141Z,100.00
2022-11-09T06:44:42.807Z,100.00
2022-11-09T06:47:10.578Z,100.00
2022-11-09T06:49:39.629Z,100.00
2022-11-09T06:52:07.309Z,100.00
2022-11-09T06:54:35.053Z,100.00
2022-11-09T06:57:02.854Z,100.00
2022-11-09T06:59:30.577Z,100.00
2022-11-09T07:02:01.648Z,100.00
2022-11-09T07:04:29.645Z,100.00
2022-11-09T07:06:58.731Z,100.00
2022-11-09T07:09:27.068Z,100.00
2022-11-09T07:11:54.851Z,100.00
2022-11-09T07:14:23.349Z,100.00
2022-11-09T07:16:51.051Z,100.00
2022-11-09T07:19:18.775Z,100.00
2022-11-09T07:21:46.426Z,100.00
2022-11-09T07:24:15.475Z,100.00
2022-11-09T07:26:43.137Z,100.00
2022-11-09T07:29:10.842Z,100.00
2022-11-09T07:31:38.485Z,100.00
2022-11-09T07:34:06.178Z,100.00
2022-11-09T07:36:36.609Z,100.00
2022-11-09T07:39:04.938Z,100.00
2022-11-09T07:41:34.984Z,100.00
2022-11-09T07:44:02.990Z,100.00
2022-11-09T07:46:30.884Z,100.00
2022-11-09T07:48:58.659Z,100.00
2022-11-09T07:51:26.341Z,100.00
2022-11-09T07:53:54.035Z,100.00
2022-11-09T07:56:21.679Z,100.00
2022-11-09T07:58:51.856Z,100.00
2022-11-09T08:01:19.521Z,100.00
2022-11-09T08:03:47.163Z,100.00
2022-11-09T08:06:18.443Z,100.00
2022-11-09T08:08:46.923Z,100.00
2022-11-09T08:11:14.558Z,100.00
2022-11-09T08:13:42.403Z,100.00
2022-11-09T08:16:11.423Z,100.00
2022-11-09T08:18:39.357Z,100.00
2022-11-09T08:21:07.316Z,100.00
2022-11-09T08:23:35.090Z,100.00
2022-11-09T08:26:04.539Z,100.00
2022-11-09T08:28:32.585Z,100.00
2022-11-09T08:31:02.021Z,100.00
2022-11-09T08:33:35.055Z,100.00
2022-11-09T08:36:02.768Z,100.00
2022-11-09T08:38:33.136Z,100.00
2022-11-09T08:41:00.908Z,100.00
2022-11-09T08:43:28.604Z,100.00
2022-11-09T08:45:56.336Z,100.00
2022-11-09T08:48:24.117Z,100.00
2022-11-09T08:50:54.914Z,100.00
2022-11-09T08:53:23.130Z,100.00
2022-11-09T08:55:51.230Z,100.00
2022-11-09T08:58:20.408Z,100.00
2022-11-09T09:00:48.831Z,100.00
2022-11-09T09:03:16.470Z,100.00
2022-11-09T09:05:44.131Z,100.00
2022-11-09T09:08:15.339Z,100.00
2022-11-09T09:10:43.403Z,100.00
2022-11-09T09:13:11.301Z,100.00
2022-11-09T09:15:38.948Z,100.00
2022-11-09T09:18:06.925Z,100.00
2022-11-09T09:20:34.606Z,100.00
2022-11-09T09:23:02.641Z,100.00
2022-11-09T09:25:31.887Z,100.00
2022-11-09T09:27:59.647Z,100.00
2022-11-09T09:30:27.329Z,100.00
2022-11-09T09:33:00.093Z,100.00
2022-11-09T09:35:28.517Z,100.00
2022-11-09T09:37:58.016Z,100.00
2022-11-09T09:40:30.925Z,100.00
2022-11-09T09:43:00.083Z,100.00
2022-11-09T09:45:32.086Z,100.00
2022-11-09T09:48:05.324Z,100.00
2022-11-09T09:50:38.699Z,100.00
2022-11-09T09:53:24.698Z,100.00
2022-11-09T09:55:57.074Z,100.00
2022-11-09T09:58:28.456Z,100.00
2022-11-09T10:01:00.854Z,100.00
2022-11-09T10:03:28.569Z,100.00
2022-11-09T10:06:03.209Z,100.00
2022-11-09T10:08:43.706Z,100.00
2022-11-09T10:11:22.355Z,100.00
2022-11-09T10:14:11.129Z,100.00
2022-11-09T10:16:46.585Z,100.00
2022-11-09T10:19:30.143Z,100.00
2022-11-09T10:22:04.781Z,100.00
2022-11-09T10:24:58.741Z,100.00
2022-11-09T10:27:35.168Z,100.00
2022-11-09T10:30:12.855Z,100.00
2022-11-09T10:32:41.396Z,100.00
2022-11-09T10:35:21.250Z,100.00
2022-11-09T10:37:50.264Z,100.00
2022-11-09T10:40:23.785Z,100.00
2022-11-09T10:43:11.784Z,99.87
2022-11-09T10:46:05.492Z,99.13
2022-11-09T10:48:53.064Z,100.00
2022-11-09T10:51:41.519Z,98.52
2022-11-09T10:54:29.466Z,92.51
2022-11-09T10:57:18.499Z,89.29
2022-11-09T11:00:06.300Z,93.57
2022-11-09T11:02:54.854Z,95.82
2022-11-09T11:05:41.404Z,90.13
2022-11-09T11:08:31.823Z,94.39
2022-11-09T11:11:38.193Z,94.05
2022-11-09T11:14:31.081Z,94.27
2022-11-09T11:17:25.553Z,92.36
2022-11-09T11:20:30.989Z,89.94
2022-11-09T11:23:19.879Z,93.20
2022-11-09T11:26:35.188Z,90.99
2022-11-09T11:29:32.451Z,89.49
2022-11-09T11:32:20.851Z,94.12
2022-11-09T11:35:14.461Z,91.90
2022-11-09T11:38:17.530Z,93.75
2022-11-09T11:41:18.573Z,96.37
2022-11-09T11:44:17.354Z,98.09
2022-11-09T11:47:10.568Z,98.11
2022-11-09T11:50:08.940Z,100.00
2022-11-09T11:53:08.768Z,97.82
2022-11-09T11:56:17.987Z,97.17
2022-11-09T11:59:24.946Z,99.71
2022-11-09T12:02:34.801Z,99.24
2022-11-09T12:05:41.239Z,96.06
2022-11-09T12:08:39.221Z,99.92
2022-11-09T12:11:40.039Z,100.00
2022-11-09T12:14:37.230Z,100.00
2022-11-09T12:17:29.533Z,98.99
2022-11-09T12:20:26.692Z,99.24
2022-11-09T12:23:30.184Z,99.49
2022-11-09T12:26:25.357Z,97.05
2022-11-09T12:29:20.437Z,100.00
2022-11-09T12:32:17.191Z,100.00
2022-11-09T12:35:18.413Z,98.71
2022-11-09T12:38:11.564Z,100.00
2022-11-09T12:41:02.194Z,100.00
2022-11-09T12:43:54.895Z,100.00
2022-11-09T12:46:47.340Z,100.00
2022-11-09T12:49:37.496Z,100.00
2022-11-09T12:52:29.093Z,100.00
2022-11-09T12:55:16.720Z,100.00
2022-11-09T12:58:03.122Z,100.00
2022-11-09T13:00:53.734Z,100.00
2022-11-09T13:03:53.519Z,100.00
2022-11-09T13:06:39.964Z,100.00
2022-11-09T13:09:39.851Z,100.00
2022-11-09T13:12:40.288Z,100.00
2022-11-09T13:15:28.847Z,100.00
2022-11-09T13:18:27.468Z,100.00
2022-11-09T13:21:36.712Z,100.00
2022-11-09T13:24:55.120Z,100.00
2022-11-09T13:27:43.903Z,100.00
2022-11-09T13:30:43.044Z,100.00
2022-11-09T13:33:31.495Z,100.00
2022-11-09T13:36:20.729Z,100.00
2022-11-09T13:39:29.511Z,100.00
2022-11-09T13:42:28.939Z,100.00
2022-11-09T13:45:27.868Z,100.00
2022-11-09T13:48:30.561Z,100.00
2022-11-09T13:51:21.033Z,100.00
2022-11-09T13:54:29.801Z,100.00
2022-11-09T13:57:17.403Z,100.00
2022-11-09T14:00:06.144Z,100.00
2022-11-09T14:03:02.653Z,100.00
2022-11-09T14:05:52.190Z,100.00
2022-11-09T14:08:41.876Z,100.00
2022-11-09T14:11:58.785Z,100.00
2022-11-09T14:15:10.183Z,100.00
2022-11-09T14:18:13.665Z,100.00
2022-11-09T14:21:18.625Z,100.00
2022-11-09T14:24:16.059Z,100.00
2022-11-09T14:27:18.234Z,100.00
2022-11-09T14:30:18.821Z,100.00
2022-11-09T14:33:19.633Z,100.00
2022-11-09T14:36:06.562Z,100.00
2022-11-09T14:38:53.130Z,100.00
2022-11-09T14:41:45.680Z,100.00
2022-11-09T14:44:39.830Z,100.00
2022-11-09T14:47:31.415Z,100.00
2022-11-09T14:50:21.029Z,100.00
2022-11-09T14:53:07.763Z,100.00
2022-11-09T14:55:56.284Z,100.00
2022-11-09T14:58:45.558Z,100.00
2022-11-09T15:01:32.468Z,100.00
2022-11-09T15:04:22.775Z,100.00
2022-11-09T15:07:19.982Z,100.00
2022-11-09T15:10:10.276Z,100.00
2022-11-09T15:13:00.618Z,100.00
2022-11-09T15:15:54.895Z,100.00
2022-11-09T15:18:46.184Z,100.00
2022-11-09T15:21:37.804Z,100.00
2022-11-09T15:24:26.373Z,100.00
2022-11-09T15:27:32.132Z,100.00
2022-11-09T15:30:34.139Z,100.00
2022-11-09T15:33:26.683Z,100.00
2022-11-09T15:36:32.188Z,100.00
2022-11-09T15:39:20.539Z,100.00
2022-11-09T15:42:07.128Z,100.00
2022-11-09T15:44:54.501Z,100.00
2022-11-09T15:47:40.867Z,100.00
2022-11-09T15:50:28.711Z,100.00
2022-11-09T15:53:15.849Z,100.00
2022-11-09T15:56:02.577Z,100.00
2022-11-09T15:58:49.610Z,100.00
2022-11-09T16:01:36.090Z,100.00
2022-11-09T16:04:22.641Z,100.00
2022-11-09T16:07:15.309Z,100.00
2022-11-09T16:10:01.764Z,100.00
2022-11-09T16:12:48.095Z,100.00
2022-11-09T16:15:35.076Z,100.00
2022-11-09T16:18:25.739Z,100.00
2022-11-09T16:21:13.909Z,100.00
2022-11-09T16:24:01.289Z,100.00
2022-11-09T16:26:47.808Z,100.00
2022-11-09T16:29:37.238Z,100.00
2022-11-09T16:32:23.638Z,100.00
2022-11-09T16:35:28.009Z,100.00
2022-11-09T16:38:15.093Z,100.00
2022-11-09T16:41:05.193Z,100.00
2022-11-09T16:43:53.832Z,100.00
2022-11-09T16:46:43.315Z,100.00
2022-11-09T16:49:31.863Z,100.00
2022-11-09T16:52:18.384Z,100.00
2022-11-09T16:55:05.696Z,100.00
2022-11-09T16:57:53.528Z,100.00
2022-11-09T17:01:08.813Z,100.00
2022-11-09T17:03:51.177Z,100.00
2022-11-09T17:06:37.419Z,100.00
2022-11-09T17:09:23.621Z,100.00
2022-11-09T17:12:09.684Z,100.00
2022-11-09T17:14:57.223Z,100.00
2022-11-09T17:17:43.670Z,100.00
2022-11-09T17:20:29.783Z,100.00
2022-11-09T17:23:18.673Z,100.00
2022-11-09T17:26:07.411Z,100.00
2022-11-09T17:28:53.707Z,100.00
2022-11-09T17:31:41.280Z,100.00
2022-11-09T17:34:27.852Z,100.00
2022-11-09T17:37:13.871Z,100.00
2022-11-09T17:40:00.417Z,100.00
2022-11-09T17:42:47.109Z,100.00
2022-11-09T17:45:35.880Z,100.00
2022-11-09T17:48:23.676Z,100.00
2022-11-09T17:51:11.529Z,100.00
2022-11-09T17:53:57.887Z,100.00
2022-11-09T17:56:44.044Z,100.00
2022-11-09T17:59:30.300Z,100.00
2022-11-09T18:02:18.488Z,100.00
2022-11-09T18:05:07.305Z,100.00
2022-11-09T18:07:53.664Z,100.00
2022-11-09T18:10:41.341Z,100.00
2022-11-09T18:13:28.620Z,100.00
2022-11-09T18:16:17.851Z,100.00
2022-11-09T18:19:06.080Z,100.00
2022-11-09T18:21:53.798Z,100.00
2022-11-09T18:24:40.426Z,100.00
2022-11-09T18:27:30.248Z,100.00
2022-11-09T18:30:30.950Z,100.00
2022-11-09T18:33:17.130Z,100.00
2022-11-09T18:36:05.689Z,100.00
2022-11-09T18:38:55.707Z,100.00
2022-11-09T18:41:41.824Z,100.00
2022-11-09T18:44:29.034Z,100.00
2022-11-09T18:47:15.127Z,100.00
2022-11-09T18:50:01.323Z,100.00
2022-11-09T18:52:47.627Z,100.00
2022-11-09T18:55:35.203Z,100.00
2022-11-09T18:58:21.584Z,100.00
2022-11-09T19:01:09.074Z,100.00
2022-11-09T19:03:59.260Z,100.00
2022-11-09T19:06:46.065Z,100.00
2022-11-09T19:09:35.843Z,100.00
2022-11-09T19:12:24.238Z,100.00
2022-11-09T19:15:11.438Z,100.00
2022-11-09T19:17:57.839Z,100.00
2022-11-09T19:20:44.140Z,100.00
2022-11-09T19:23:34.379Z,100.00
2022-11-09T19:26:21.978Z,100.00
2022-11-09T19:29:10.148Z,100.00
2022-11-09T19:31:56.591Z,100.00
2022-11-09T19:34:43.546Z,100.00
2022-11-09T19:37:29.812Z,100.00
2022-11-09T19:40:16.688Z,100.00
2022-11-09T19:43:03.036Z,100.00
2022-11-09T19:45:50.280Z,100.00
2022-11-09T19:48:37.392Z,100.00
2022-11-09T19:51:24.227Z,100.00
2022-11-09T19:54:12.519Z,100.00
2022-11-09T19:56:58.552Z,100.00
2022-11-09T19:59:44.706Z,100.00
2022-11-09T20:02:32.228Z,100.00
2022-11-09T20:05:18.634Z,100.00
2022-11-09T20:08:05.903Z,100.00
2022-11-09T20:10:52.284Z,100.00
2022-11-09T20:13:39.013Z,100.00
2022-11-09T20:16:25.528Z,100.00
2022-11-09T20:19:14.203Z,100.00
2022-11-09T20:22:00.719Z,100.00
2022-11-09T20:24:50.602Z,100.00
2022-11-09T20:27:37.069Z,100.00
2022-11-09T20:30:23.514Z,100.00
2022-11-09T20:33:11.900Z,100.00
2022-11-09T20:35:59.448Z,100.00
2022-11-09T20:38:45.959Z,100.00
2022-11-09T20:41:49.735Z,100.00
2022-11-09T20:44:36.320Z,100.00
2022-11-09T20:47:49.027Z,100.00
2022-11-09T20:50:28.920Z,100.00
2022-11-09T20:53:16.765Z,100.00
2022-11-09T20:56:07.667Z,100.00
2022-11-09T20:58:54.209Z,100.00
2022-11-09T21:01:41.615Z,100.00
2022-11-09T21:04:27.827Z,100.00
2022-11-09T21:07:14.088Z,100.00
2022-11-09T21:10:01.495Z,100.00
2022-11-09T21:12:47.722Z,100.00
2022-11-09T21:15:33.971Z,100.00
2022-11-09T21:18:22.907Z,100.00
2022-11-09T21:21:11.520Z,100.00
2022-11-09T21:24:15.311Z,100.00
2022-11-09T21:27:20.450Z,100.00
2022-11-09T21:30:07.894Z,100.00
2022-11-09T21:32:54.340Z,100.00
2022-11-09T21:35:40.351Z,100.00
2022-11-09T21:38:26.512Z,100.00
2022-11-09T21:41:30.115Z,100.00
2022-11-09T21:44:17.958Z,100.00
2022-11-09T21:47:04.915Z,100.00
2022-11-09T21:49:51.349Z,100.00
2022-11-09T21:52:37.697Z,100.00
2022-11-09T21:55:23.859Z,100.00
2022-11-09T21:58:10.219Z,100.00
2022-11-09T22:01:15.817Z,100.00
2022-11-09T22:04:02.451Z,100.00
2022-11-09T22:06:48.878Z,100.00
2022-11-09T22:09:57.739Z,100.00
2022-11-09T22:13:00.875Z,100.00
2022-11-09T22:16:10.233Z,100.00
2022-11-09T22:19:15.681Z,100.00
2022-11-09T22:22:02.241Z,100.00
2022-11-09T22:24:48.527Z,100.00
2022-11-09T22:27:35.132Z,100.00
2022-11-09T22:30:21.710Z,100.00
2022-11-09T22:33:07.881Z,100.00
2022-11-09T22:35:56.578Z,100.00
2022-11-09T22:38:43.088Z,100.00
2022-11-09T22:41:29.280Z,100.00
2022-11-09T22:44:15.954Z,100.00
2022-11-09T22:47:02.530Z,100.00
2022-11-09T22:49:48.713Z,100.00
2022-11-09T22:52:36.348Z,100.00
2022-11-09T22:55:22.445Z,100.00
2022-11-09T22:58:08.528Z,100.00
2022-11-09T23:00:55.034Z,100.00
2022-11-09T23:03:41.394Z,100.00
2022-11-09T23:06:27.831Z,100.00
2022-11-09T23:09:15.480Z,100.00
2022-11-09T23:12:01.649Z,100.00
2022-11-09T23:15:05.937Z,100.00
2022-11-09T23:18:11.338Z,100.00
2022-11-09T23:21:00.372Z,100.00
2022-11-09T23:23:46.886Z,100.00
2022-11-09T23:26:36.517Z,100.00
2022-11-09T23:29:22.828Z,100.00
2022-11-09T23:32:09.141Z,100.00
2022-11-09T23:34:55.432Z,100.00
2022-11-09T23:37:41.500Z,100.00
2022-11-09T23:40:27.975Z,100.00
2022-11-09T23:43:16.893Z,100.00
2022-11-09T23:46:04.834Z,100.00
2022-11-09T23:48:51.185Z,100.00
2022-11-09T23:51:37.238Z,100.00
2022-11-09T23:54:23.448Z,100.00
2022-11-09T23:57:09.640Z,100.00
2022-11-09T23:59:57.148Z,100.00
